sensor_id;sensor_type;location;lat;lon;timestamp;P1;durP1;ratioP1;P2;durP2;ratioP2
15876;SDS011;8037;51.666;7.834;2023-04-01T00:01:26;1.57;;;0.50;;
15876;SDS011;8037;51.666;7.834;2023-04-01T00:03:52;3.70;;;0.90;;
15876;SDS011;8037;51.666;7.834;2023-04-01T00:06:19;0.60;;;0.50;;
15876;SDS011;8037;51.666;7.834;2023-04-01T00:08:45;0.40;;;0.33;;
15876;SDS011;8037;51.666;7.834;2023-04-01T00:11:11;0.30;;;0.30;;
15876;SDS011;8037;51.666;7.834;2023-04-01T00:13:37;1.67;;;0.50;;
15876;SDS011;8037;51.666;7.834;2023-04-01T00:16:03;1.30;;;0.87;;
15876;SDS011;8037;51.666;7.834;2023-04-01T00:18:30;0.77;;;0.30;;
15876;SDS011;8037;51.666;7.834;2023-04-01T00:20:56;0.40;;;0.40;;
15876;SDS011;8037;51.666;7.834;2023-04-01T00:23:22;1.23;;;0.43;;
15876;SDS011;8037;51.666;7.834;2023-04-01T00:25:48;0.77;;;0.30;;
15876;SDS011;8037;51.666;7.834;2023-04-01T00:28:17;1.50;;;0.53;;
15876;SDS011;8037;51.666;7.834;2023-04-01T00:30:43;2.23;;;0.60;;
15876;SDS011;8037;51.666;7.834;2023-04-01T00:33:09;0.40;;;0.30;;
15876;SDS011;8037;51.666;7.834;2023-04-01T00:35:36;1.70;;;0.50;;
15876;SDS011;8037;51.666;7.834;2023-04-01T00:38:02;0.40;;;0.30;;
15876;SDS011;8037;51.666;7.834;2023-04-01T00:40:30;0.90;;;0.90;;
15876;SDS011;8037;51.666;7.834;2023-04-01T00:42:57;1.13;;;0.50;;
15876;SDS011;8037;51.666;7.834;2023-04-01T00:45:28;0.70;;;0.60;;
15876;SDS011;8037;51.666;7.834;2023-04-01T00:47:55;0.50;;;0.40;;
15876;SDS011;8037;51.666;7.834;2023-04-01T00:50:22;1.10;;;0.50;;
15876;SDS011;8037;51.666;7.834;2023-04-01T00:52:50;3.43;;;0.60;;
15876;SDS011;8037;51.666;7.834;2023-04-01T00:55:16;0.77;;;0.50;;
15876;SDS011;8037;51.666;7.834;2023-04-01T00:57:44;1.37;;;0.50;;
15876;SDS011;8037;51.666;7.834;2023-04-01T01:00:11;3.57;;;0.37;;
15876;SDS011;8037;51.666;7.834;2023-04-01T01:02:40;0.77;;;0.40;;
15876;SDS011;8037;51.666;7.834;2023-04-01T01:05:07;0.63;;;0.40;;
15876;SDS011;8037;51.666;7.834;2023-04-01T01:10:35;1.43;;;0.50;;
15876;SDS011;8037;51.666;7.834;2023-04-01T01:15:47;1.57;;;0.70;;
15876;SDS011;8037;51.666;7.834;2023-04-01T01:26:17;2.30;;;0.73;;
15876;SDS011;8037;51.666;7.834;2023-04-01T01:34:22;1.60;;;0.43;;
15876;SDS011;8037;51.666;7.834;2023-04-01T01:36:52;0.70;;;0.40;;
15876;SDS011;8037;51.666;7.834;2023-04-01T01:39:19;1.33;;;0.50;;
15876;SDS011;8037;51.666;7.834;2023-04-01T01:41:46;0.40;;;0.30;;
15876;SDS011;8037;51.666;7.834;2023-04-01T01:44:14;0.40;;;0.30;;
15876;SDS011;8037;51.666;7.834;2023-04-01T01:46:41;0.40;;;0.30;;
15876;SDS011;8037;51.666;7.834;2023-04-01T01:49:08;1.07;;;0.40;;
15876;SDS011;8037;51.666;7.834;2023-04-01T01:51:36;0.50;;;0.40;;
15876;SDS011;8037;51.666;7.834;2023-04-01T01:54:02;0.53;;;0.40;;
15876;SDS011;8037;51.666;7.834;2023-04-01T01:56:28;0.60;;;0.50;;
15876;SDS011;8037;51.666;7.834;2023-04-01T01:58:56;6.23;;;0.60;;
15876;SDS011;8037;51.666;7.834;2023-04-01T02:01:26;0.60;;;0.50;;
15876;SDS011;8037;51.666;7.834;2023-04-01T02:03:53;1.20;;;0.40;;
15876;SDS011;8037;51.666;7.834;2023-04-01T02:06:21;1.50;;;0.40;;
15876;SDS011;8037;51.666;7.834;2023-04-01T02:08:51;1.43;;;0.40;;
15876;SDS011;8037;51.666;7.834;2023-04-01T02:11:18;0.40;;;0.40;;
15876;SDS011;8037;51.666;7.834;2023-04-01T02:13:48;2.50;;;0.40;;
15876;SDS011;8037;51.666;7.834;2023-04-01T02:16:18;0.70;;;0.40;;
15876;SDS011;8037;51.666;7.834;2023-04-01T02:18:46;1.90;;;0.53;;
15876;SDS011;8037;51.666;7.834;2023-04-01T02:21:14;0.73;;;0.63;;
15876;SDS011;8037;51.666;7.834;2023-04-01T02:23:40;0.40;;;0.40;;
15876;SDS011;8037;51.666;7.834;2023-04-01T02:26:07;0.70;;;0.43;;
15876;SDS011;8037;51.666;7.834;2023-04-01T02:28:35;1.10;;;0.40;;
15876;SDS011;8037;51.666;7.834;2023-04-01T02:31:02;0.50;;;0.40;;
15876;SDS011;8037;51.666;7.834;2023-04-01T02:33:29;0.40;;;0.30;;
15876;SDS011;8037;51.666;7.834;2023-04-01T02:35:56;0.40;;;0.30;;
15876;SDS011;8037;51.666;7.834;2023-04-01T02:38:23;0.40;;;0.30;;
15876;SDS011;8037;51.666;7.834;2023-04-01T02:40:50;1.60;;;0.80;;
15876;SDS011;8037;51.666;7.834;2023-04-01T02:43:16;0.90;;;0.40;;
15876;SDS011;8037;51.666;7.834;2023-04-01T02:45:44;0.30;;;0.30;;
15876;SDS011;8037;51.666;7.834;2023-04-01T02:48:10;0.63;;;0.40;;
15876;SDS011;8037;51.666;7.834;2023-04-01T02:50:38;2.13;;;0.40;;
15876;SDS011;8037;51.666;7.834;2023-04-01T02:53:03;0.40;;;0.30;;
15876;SDS011;8037;51.666;7.834;2023-04-01T02:55:31;0.97;;;0.40;;
15876;SDS011;8037;51.666;7.834;2023-04-01T02:57:57;2.57;;;0.50;;
15876;SDS011;8037;51.666;7.834;2023-04-01T03:00:23;1.07;;;0.40;;
15876;SDS011;8037;51.666;7.834;2023-04-01T03:02:49;0.30;;;0.30;;
15876;SDS011;8037;51.666;7.834;2023-04-01T03:05:15;0.40;;;0.30;;
15876;SDS011;8037;51.666;7.834;2023-04-01T03:07:41;0.40;;;0.30;;
15876;SDS011;8037;51.666;7.834;2023-04-01T03:10:07;0.90;;;0.40;;
15876;SDS011;8037;51.666;7.834;2023-04-01T03:12:33;0.40;;;0.30;;
15876;SDS011;8037;51.666;7.834;2023-04-01T03:14:59;2.83;;;0.70;;
15876;SDS011;8037;51.666;7.834;2023-04-01T03:17:25;1.33;;;0.30;;
15876;SDS011;8037;51.666;7.834;2023-04-01T03:19:51;0.50;;;0.30;;
15876;SDS011;8037;51.666;7.834;2023-04-01T03:22:17;0.40;;;0.30;;
15876;SDS011;8037;51.666;7.834;2023-04-01T03:24:45;0.80;;;0.40;;
15876;SDS011;8037;51.666;7.834;2023-04-01T03:27:11;0.50;;;0.40;;
15876;SDS011;8037;51.666;7.834;2023-04-01T03:29:37;0.50;;;0.30;;
15876;SDS011;8037;51.666;7.834;2023-04-01T03:32:03;0.40;;;0.30;;
15876;SDS011;8037;51.666;7.834;2023-04-01T03:34:30;0.40;;;0.30;;
15876;SDS011;8037;51.666;7.834;2023-04-01T03:36:56;0.40;;;0.30;;
15876;SDS011;8037;51.666;7.834;2023-04-01T03:39:22;0.30;;;0.30;;
15876;SDS011;8037;51.666;7.834;2023-04-01T03:41:48;0.40;;;0.40;;
15876;SDS011;8037;51.666;7.834;2023-04-01T03:44:14;0.93;;;0.40;;
15876;SDS011;8037;51.666;7.834;2023-04-01T03:46:40;0.40;;;0.30;;
15876;SDS011;8037;51.666;7.834;2023-04-01T03:49:07;0.50;;;0.40;;
15876;SDS011;8037;51.666;7.834;2023-04-01T03:51:42;0.40;;;0.30;;
15876;SDS011;8037;51.666;7.834;2023-04-01T03:54:09;1.23;;;0.30;;
15876;SDS011;8037;51.666;7.834;2023-04-01T03:56:35;1.80;;;0.30;;
15876;SDS011;8037;51.666;7.834;2023-04-01T03:59:02;0.40;;;0.30;;
15876;SDS011;8037;51.666;7.834;2023-04-01T04:01:29;0.30;;;0.20;;
15876;SDS011;8037;51.666;7.834;2023-04-01T04:03:55;0.30;;;0.30;;
15876;SDS011;8037;51.666;7.834;2023-04-01T04:06:22;0.50;;;0.50;;
15876;SDS011;8037;51.666;7.834;2023-04-01T04:08:48;0.53;;;0.30;;
15876;SDS011;8037;51.666;7.834;2023-04-01T04:11:14;1.00;;;0.40;;
15876;SDS011;8037;51.666;7.834;2023-04-01T04:13:40;0.40;;;0.30;;
15876;SDS011;8037;51.666;7.834;2023-04-01T04:16:06;0.40;;;0.30;;
15876;SDS011;8037;51.666;7.834;2023-04-01T04:18:33;2.50;;;0.50;;
15876;SDS011;8037;51.666;7.834;2023-04-01T04:20:59;0.40;;;0.30;;
15876;SDS011;8037;51.666;7.834;2023-04-01T04:23:25;0.33;;;0.30;;
15876;SDS011;8037;51.666;7.834;2023-04-01T04:25:58;0.80;;;0.40;;
15876;SDS011;8037;51.666;7.834;2023-04-01T04:28:26;0.47;;;0.30;;
15876;SDS011;8037;51.666;7.834;2023-04-01T04:30:52;0.40;;;0.30;;
15876;SDS011;8037;51.666;7.834;2023-04-01T04:33:18;0.40;;;0.40;;
15876;SDS011;8037;51.666;7.834;2023-04-01T04:35:45;0.67;;;0.40;;
15876;SDS011;8037;51.666;7.834;2023-04-01T04:38:11;0.53;;;0.30;;
15876;SDS011;8037;51.666;7.834;2023-04-01T04:40:36;0.50;;;0.50;;
15876;SDS011;8037;51.666;7.834;2023-04-01T04:43:03;1.03;;;0.30;;
15876;SDS011;8037;51.666;7.834;2023-04-01T04:45:29;13.40;;;0.40;;
15876;SDS011;8037;51.666;7.834;2023-04-01T04:47:55;1.43;;;0.40;;
15876;SDS011;8037;51.666;7.834;2023-04-01T04:50:21;0.40;;;0.30;;
15876;SDS011;8037;51.666;7.834;2023-04-01T04:52:47;0.30;;;0.30;;
15876;SDS011;8037;51.666;7.834;2023-04-01T04:55:13;2.13;;;0.40;;
15876;SDS011;8037;51.666;7.834;2023-04-01T04:57:40;0.40;;;0.30;;
15876;SDS011;8037;51.666;7.834;2023-04-01T05:00:06;0.93;;;0.50;;
15876;SDS011;8037;51.666;7.834;2023-04-01T05:02:32;0.40;;;0.30;;
15876;SDS011;8037;51.666;7.834;2023-04-01T05:04:58;0.40;;;0.30;;
15876;SDS011;8037;51.666;7.834;2023-04-01T05:07:25;0.40;;;0.40;;
15876;SDS011;8037;51.666;7.834;2023-04-01T05:09:50;0.73;;;0.50;;
15876;SDS011;8037;51.666;7.834;2023-04-01T05:12:16;0.40;;;0.30;;
15876;SDS011;8037;51.666;7.834;2023-04-01T05:14:42;0.40;;;0.30;;
15876;SDS011;8037;51.666;7.834;2023-04-01T05:17:09;1.47;;;0.50;;
15876;SDS011;8037;51.666;7.834;2023-04-01T05:19:35;0.40;;;0.40;;
15876;SDS011;8037;51.666;7.834;2023-04-01T05:22:01;0.40;;;0.30;;
15876;SDS011;8037;51.666;7.834;2023-04-01T05:24:27;0.60;;;0.60;;
15876;SDS011;8037;51.666;7.834;2023-04-01T05:26:53;0.40;;;0.30;;
15876;SDS011;8037;51.666;7.834;2023-04-01T05:29:19;0.40;;;0.30;;
15876;SDS011;8037;51.666;7.834;2023-04-01T05:31:45;1.03;;;0.40;;
15876;SDS011;8037;51.666;7.834;2023-04-01T05:34:11;0.50;;;0.50;;
15876;SDS011;8037;51.666;7.834;2023-04-01T05:36:37;0.50;;;0.47;;
15876;SDS011;8037;51.666;7.834;2023-04-01T05:39:03;0.53;;;0.50;;
15876;SDS011;8037;51.666;7.834;2023-04-01T05:41:29;0.40;;;0.40;;
15876;SDS011;8037;51.666;7.834;2023-04-01T05:43:55;0.40;;;0.30;;
15876;SDS011;8037;51.666;7.834;2023-04-01T05:46:21;0.40;;;0.30;;
15876;SDS011;8037;51.666;7.834;2023-04-01T05:48:47;0.40;;;0.40;;
15876;SDS011;8037;51.666;7.834;2023-04-01T05:51:13;0.60;;;0.40;;
15876;SDS011;8037;51.666;7.834;2023-04-01T05:53:40;0.50;;;0.50;;
15876;SDS011;8037;51.666;7.834;2023-04-01T05:56:06;1.13;;;0.60;;
15876;SDS011;8037;51.666;7.834;2023-04-01T05:58:34;0.40;;;0.40;;
15876;SDS011;8037;51.666;7.834;2023-04-01T06:01:03;0.40;;;0.30;;
15876;SDS011;8037;51.666;7.834;2023-04-01T06:03:30;0.43;;;0.43;;
15876;SDS011;8037;51.666;7.834;2023-04-01T06:05:56;0.47;;;0.47;;
15876;SDS011;8037;51.666;7.834;2023-04-01T06:08:22;0.60;;;0.40;;
15876;SDS011;8037;51.666;7.834;2023-04-01T06:16:09;0.50;;;0.40;;
15876;SDS011;8037;51.666;7.834;2023-04-01T06:31:38;0.50;;;0.40;;
15876;SDS011;8037;51.666;7.834;2023-04-01T06:37:02;0.37;;;0.30;;
15876;SDS011;8037;51.666;7.834;2023-04-01T06:44:55;0.70;;;0.50;;
15876;SDS011;8037;51.666;7.834;2023-04-01T06:50:03;0.43;;;0.40;;
15876;SDS011;8037;51.666;7.834;2023-04-01T06:57:47;0.40;;;0.30;;
15876;SDS011;8037;51.666;7.834;2023-04-01T07:02:54;0.40;;;0.40;;
15876;SDS011;8037;51.666;7.834;2023-04-01T07:05:23;3.93;;;0.70;;
15876;SDS011;8037;51.666;7.834;2023-04-01T07:07:52;0.40;;;0.30;;
15876;SDS011;8037;51.666;7.834;2023-04-01T07:10:28;0.47;;;0.40;;
15876;SDS011;8037;51.666;7.834;2023-04-01T07:12:57;0.40;;;0.30;;
15876;SDS011;8037;51.666;7.834;2023-04-01T07:15:28;0.97;;;0.50;;
15876;SDS011;8037;51.666;7.834;2023-04-01T07:17:57;0.43;;;0.40;;
15876;SDS011;8037;51.666;7.834;2023-04-01T07:20:31;0.40;;;0.30;;
15876;SDS011;8037;51.666;7.834;2023-04-01T07:22:58;0.40;;;0.30;;
15876;SDS011;8037;51.666;7.834;2023-04-01T07:25:26;1.13;;;0.40;;
15876;SDS011;8037;51.666;7.834;2023-04-01T07:27:54;0.50;;;0.40;;
15876;SDS011;8037;51.666;7.834;2023-04-01T07:30:22;0.50;;;0.50;;
15876;SDS011;8037;51.666;7.834;2023-04-01T07:35:51;0.50;;;0.40;;
15876;SDS011;8037;51.666;7.834;2023-04-01T07:41:12;0.40;;;0.40;;
15876;SDS011;8037;51.666;7.834;2023-04-01T07:46:53;0.40;;;0.30;;
15876;SDS011;8037;51.666;7.834;2023-04-01T07:49:25;0.47;;;0.33;;
15876;SDS011;8037;51.666;7.834;2023-04-01T07:57:02;0.40;;;0.33;;
15876;SDS011;8037;51.666;7.834;2023-04-01T07:59:59;0.67;;;0.50;;
15876;SDS011;8037;51.666;7.834;2023-04-01T08:02:30;0.57;;;0.40;;
15876;SDS011;8037;51.666;7.834;2023-04-01T08:07:31;0.40;;;0.30;;
15876;SDS011;8037;51.666;7.834;2023-04-01T08:12:41;0.60;;;0.50;;
15876;SDS011;8037;51.666;7.834;2023-04-01T08:22:48;0.40;;;0.33;;
15876;SDS011;8037;51.666;7.834;2023-04-01T08:25:17;1.60;;;0.50;;
15876;SDS011;8037;51.666;7.834;2023-04-01T08:27:46;1.30;;;0.57;;
15876;SDS011;8037;51.666;7.834;2023-04-01T08:32:46;3.40;;;0.50;;
15876;SDS011;8037;51.666;7.834;2023-04-01T08:35:18;0.90;;;0.53;;
15876;SDS011;8037;51.666;7.834;2023-04-01T08:37:47;0.57;;;0.40;;
15876;SDS011;8037;51.666;7.834;2023-04-01T09:06:29;1.00;;;0.50;;
15876;SDS011;8037;51.666;7.834;2023-04-01T09:11:28;2.87;;;0.60;;
15876;SDS011;8037;51.666;7.834;2023-04-01T09:19:24;0.50;;;0.50;;
15876;SDS011;8037;51.666;7.834;2023-04-01T09:22:05;0.50;;;0.50;;
15876;SDS011;8037;51.666;7.834;2023-04-01T09:30:06;2.03;;;1.17;;
15876;SDS011;8037;51.666;7.834;2023-04-01T09:32:42;1.03;;;0.40;;
15876;SDS011;8037;51.666;7.834;2023-04-01T09:40:33;0.50;;;0.40;;
15876;SDS011;8037;51.666;7.834;2023-04-01T09:43:12;0.40;;;0.40;;
15876;SDS011;8037;51.666;7.834;2023-04-01T09:53:28;0.70;;;0.70;;
15876;SDS011;8037;51.666;7.834;2023-04-01T10:01:26;0.70;;;0.70;;
15876;SDS011;8037;51.666;7.834;2023-04-01T10:22:37;0.53;;;0.53;;
15876;SDS011;8037;51.666;7.834;2023-04-01T10:33:08;0.50;;;0.50;;
15876;SDS011;8037;51.666;7.834;2023-04-01T10:38:36;0.70;;;0.70;;
15876;SDS011;8037;51.666;7.834;2023-04-01T10:41:14;0.60;;;0.50;;
15876;SDS011;8037;51.666;7.834;2023-04-01T10:44:04;0.40;;;0.40;;
15876;SDS011;8037;51.666;7.834;2023-04-01T10:46:41;0.40;;;0.40;;
15876;SDS011;8037;51.666;7.834;2023-04-01T10:51:45;1.20;;;0.83;;
15876;SDS011;8037;51.666;7.834;2023-04-01T11:16:08;0.90;;;0.77;;
15876;SDS011;8037;51.666;7.834;2023-04-01T11:26:08;1.03;;;1.03;;
15876;SDS011;8037;51.666;7.834;2023-04-01T11:31:20;1.47;;;0.83;;
15876;SDS011;8037;51.666;7.834;2023-04-01T11:33:52;0.90;;;0.90;;
15876;SDS011;8037;51.666;7.834;2023-04-01T11:38:54;1.97;;;1.43;;
15876;SDS011;8037;51.666;7.834;2023-04-01T11:44:07;1.90;;;1.80;;
15876;SDS011;8037;51.666;7.834;2023-04-01T11:46:36;1.47;;;1.37;;
15876;SDS011;8037;51.666;7.834;2023-04-01T11:49:19;5.30;;;0.83;;
15876;SDS011;8037;51.666;7.834;2023-04-01T12:05:03;1.37;;;0.70;;
15876;SDS011;8037;51.666;7.834;2023-04-01T12:10:05;1.07;;;0.93;;
15876;SDS011;8037;51.666;7.834;2023-04-01T12:15:18;4.93;;;0.90;;
15876;SDS011;8037;51.666;7.834;2023-04-01T12:30:22;1.27;;;1.17;;
15876;SDS011;8037;51.666;7.834;2023-04-01T12:43:14;1.80;;;1.70;;
15876;SDS011;8037;51.666;7.834;2023-04-01T12:45:49;2.20;;;1.60;;
15876;SDS011;8037;51.666;7.834;2023-04-01T12:51:03;0.73;;;0.73;;
15876;SDS011;8037;51.666;7.834;2023-04-01T12:56:02;1.60;;;1.50;;
15876;SDS011;8037;51.666;7.834;2023-04-01T13:01:09;0.73;;;0.73;;
15876;SDS011;8037;51.666;7.834;2023-04-01T13:06:32;0.90;;;0.90;;
15876;SDS011;8037;51.666;7.834;2023-04-01T13:16:39;1.17;;;1.07;;
15876;SDS011;8037;51.666;7.834;2023-04-01T13:19:07;1.23;;;1.07;;
15876;SDS011;8037;51.666;7.834;2023-04-01T13:24:29;2.03;;;1.00;;
15876;SDS011;8037;51.666;7.834;2023-04-01T13:27:02;4.60;;;0.93;;
15876;SDS011;8037;51.666;7.834;2023-04-01T13:29:41;1.07;;;1.07;;
15876;SDS011;8037;51.666;7.834;2023-04-01T13:32:19;1.17;;;1.07;;
15876;SDS011;8037;51.666;7.834;2023-04-01T13:34:52;0.93;;;0.87;;
15876;SDS011;8037;51.666;7.834;2023-04-01T13:37:32;2.30;;;0.93;;
15876;SDS011;8037;51.666;7.834;2023-04-01T13:42:47;0.83;;;0.83;;
15876;SDS011;8037;51.666;7.834;2023-04-01T13:58:29;1.40;;;1.30;;
15876;SDS011;8037;51.666;7.834;2023-04-01T14:09:44;1.73;;;1.50;;
15876;SDS011;8037;51.666;7.834;2023-04-01T14:17:24;1.20;;;1.00;;
15876;SDS011;8037;51.666;7.834;2023-04-01T14:20:06;1.87;;;0.80;;
15876;SDS011;8037;51.666;7.834;2023-04-01T14:25:30;1.53;;;1.43;;
15876;SDS011;8037;51.666;7.834;2023-04-01T14:33:04;1.33;;;1.33;;
15876;SDS011;8037;51.666;7.834;2023-04-01T14:35:38;1.50;;;1.20;;
15876;SDS011;8037;51.666;7.834;2023-04-01T14:41:30;1.57;;;1.47;;
15876;SDS011;8037;51.666;7.834;2023-04-01T14:46:19;2.87;;;2.60;;
15876;SDS011;8037;51.666;7.834;2023-04-01T14:48:51;1.10;;;1.10;;
15876;SDS011;8037;51.666;7.834;2023-04-01T14:51:23;7.43;;;2.10;;
15876;SDS011;8037;51.666;7.834;2023-04-01T14:56:47;1.53;;;1.20;;
15876;SDS011;8037;51.666;7.834;2023-04-01T15:04:35;1.53;;;1.10;;
15876;SDS011;8037;51.666;7.834;2023-04-01T15:15:10;1.13;;;1.10;;
15876;SDS011;8037;51.666;7.834;2023-04-01T15:17:53;5.33;;;1.60;;
15876;SDS011;8037;51.666;7.834;2023-04-01T15:30:47;1.73;;;1.33;;
15876;SDS011;8037;51.666;7.834;2023-04-01T15:38:48;1.83;;;1.73;;
15876;SDS011;8037;51.666;7.834;2023-04-01T15:41:16;1.57;;;1.47;;
15876;SDS011;8037;51.666;7.834;2023-04-01T15:43:44;1.57;;;1.47;;
15876;SDS011;8037;51.666;7.834;2023-04-01T15:51:28;1.90;;;1.80;;
15876;SDS011;8037;51.666;7.834;2023-04-01T15:54:05;2.27;;;1.83;;
15876;SDS011;8037;51.666;7.834;2023-04-01T16:04:40;1.73;;;1.60;;
15876;SDS011;8037;51.666;7.834;2023-04-01T16:17:27;2.20;;;2.00;;
15876;SDS011;8037;51.666;7.834;2023-04-01T16:20:01;6.53;;;2.17;;
15876;SDS011;8037;51.666;7.834;2023-04-01T16:22:39;3.90;;;2.63;;
15876;SDS011;8037;51.666;7.834;2023-04-01T16:27:56;3.73;;;3.10;;
15876;SDS011;8037;51.666;7.834;2023-04-01T16:30:44;3.10;;;2.83;;
15876;SDS011;8037;51.666;7.834;2023-04-01T16:36:17;2.80;;;2.37;;
15876;SDS011;8037;51.666;7.834;2023-04-01T16:38:36;4.30;;;2.73;;
15876;SDS011;8037;51.666;7.834;2023-04-01T16:41:10;5.30;;;3.10;;
15876;SDS011;8037;51.666;7.834;2023-04-01T16:46:33;4.07;;;3.17;;
15876;SDS011;8037;51.666;7.834;2023-04-01T16:54:16;5.73;;;3.60;;
15876;SDS011;8037;51.666;7.834;2023-04-01T16:56:52;3.83;;;3.50;;
15876;SDS011;8037;51.666;7.834;2023-04-01T16:59:21;4.80;;;3.37;;
15876;SDS011;8037;51.666;7.834;2023-04-01T17:07:01;3.30;;;3.20;;
15876;SDS011;8037;51.666;7.834;2023-04-01T17:12:17;6.40;;;4.37;;
15876;SDS011;8037;51.666;7.834;2023-04-01T17:17:27;3.43;;;3.07;;
15876;SDS011;8037;51.666;7.834;2023-04-01T17:28:12;4.07;;;3.77;;
15876;SDS011;8037;51.666;7.834;2023-04-01T17:36:06;32.97;;;13.43;;
15876;SDS011;8037;51.666;7.834;2023-04-01T17:38:40;32.10;;;14.43;;
15876;SDS011;8037;51.666;7.834;2023-04-01T17:41:19;26.87;;;14.93;;
15876;SDS011;8037;51.666;7.834;2023-04-01T17:49:02;5.80;;;5.20;;
15876;SDS011;8037;51.666;7.834;2023-04-01T17:57:14;4.70;;;4.30;;
15876;SDS011;8037;51.666;7.834;2023-04-01T17:59:49;5.23;;;4.73;;
15876;SDS011;8037;51.666;7.834;2023-04-01T18:02:21;5.73;;;5.20;;
15876;SDS011;8037;51.666;7.834;2023-04-01T18:10:01;5.73;;;4.37;;
15876;SDS011;8037;51.666;7.834;2023-04-01T18:12:37;5.73;;;5.03;;
15876;SDS011;8037;51.666;7.834;2023-04-01T18:18:05;4.70;;;4.23;;
15876;SDS011;8037;51.666;7.834;2023-04-01T18:23:19;5.67;;;4.60;;
15876;SDS011;8037;51.666;7.834;2023-04-01T18:25:47;5.17;;;4.70;;
15876;SDS011;8037;51.666;7.834;2023-04-01T18:28:18;5.67;;;5.10;;
15876;SDS011;8037;51.666;7.834;2023-04-01T18:30:58;4.57;;;4.20;;
15876;SDS011;8037;51.666;7.834;2023-04-01T18:38:55;4.47;;;4.07;;
15876;SDS011;8037;51.666;7.834;2023-04-01T18:41:26;6.17;;;5.63;;
15876;SDS011;8037;51.666;7.834;2023-04-01T18:51:57;5.97;;;5.30;;
15876;SDS011;8037;51.666;7.834;2023-04-01T18:54:31;6.70;;;5.00;;
15876;SDS011;8037;51.666;7.834;2023-04-01T18:57:07;5.87;;;5.37;;
15876;SDS011;8037;51.666;7.834;2023-04-01T18:59:43;6.37;;;5.10;;
15876;SDS011;8037;51.666;7.834;2023-04-01T19:02:31;5.27;;;4.77;;
15876;SDS011;8037;51.666;7.834;2023-04-01T19:07:48;6.80;;;5.10;;
15876;SDS011;8037;51.666;7.834;2023-04-01T19:10:37;7.73;;;5.37;;
15876;SDS011;8037;51.666;7.834;2023-04-01T19:21:04;6.47;;;5.30;;
15876;SDS011;8037;51.666;7.834;2023-04-01T19:23:42;7.03;;;5.60;;
15876;SDS011;8037;51.666;7.834;2023-04-01T19:26:13;7.60;;;5.33;;
15876;SDS011;8037;51.666;7.834;2023-04-01T19:28:45;9.90;;;6.40;;
15876;SDS011;8037;51.666;7.834;2023-04-01T19:38:38;6.30;;;5.27;;
15876;SDS011;8037;51.666;7.834;2023-04-01T19:59:18;0.90;;;0.50;;
15876;SDS011;8037;51.666;7.834;2023-04-01T20:02:03;0.77;;;0.77;;
15876;SDS011;8037;51.666;7.834;2023-04-01T20:04:41;0.70;;;0.70;;
15876;SDS011;8037;51.666;7.834;2023-04-01T20:14:41;0.80;;;0.80;;
15876;SDS011;8037;51.666;7.834;2023-04-01T20:17:15;0.80;;;0.80;;
15876;SDS011;8037;51.666;7.834;2023-04-01T20:19:43;0.80;;;0.80;;
15876;SDS011;8037;51.666;7.834;2023-04-01T20:22:17;0.87;;;0.87;;
15876;SDS011;8037;51.666;7.834;2023-04-01T20:24:50;2.50;;;1.00;;
15876;SDS011;8037;51.666;7.834;2023-04-01T20:27:19;1.00;;;1.00;;
15876;SDS011;8037;51.666;7.834;2023-04-01T20:29:54;0.97;;;0.77;;
15876;SDS011;8037;51.666;7.834;2023-04-01T20:32:31;1.03;;;1.03;;
15876;SDS011;8037;51.666;7.834;2023-04-01T20:35:02;0.93;;;0.67;;
15876;SDS011;8037;51.666;7.834;2023-04-01T20:40:34;0.60;;;0.47;;
15876;SDS011;8037;51.666;7.834;2023-04-01T20:43:14;0.60;;;0.60;;
15876;SDS011;8037;51.666;7.834;2023-04-01T20:45:46;0.83;;;0.83;;
15876;SDS011;8037;51.666;7.834;2023-04-01T20:51:09;1.37;;;0.57;;
15876;SDS011;8037;51.666;7.834;2023-04-01T20:53:42;0.50;;;0.50;;
15876;SDS011;8037;51.666;7.834;2023-04-01T20:56:17;0.83;;;0.83;;
15876;SDS011;8037;51.666;7.834;2023-04-01T20:58:52;1.07;;;1.07;;
15876;SDS011;8037;51.666;7.834;2023-04-01T21:17:07;0.70;;;0.70;;
15876;SDS011;8037;51.666;7.834;2023-04-01T21:22:34;0.70;;;0.60;;
15876;SDS011;8037;51.666;7.834;2023-04-01T21:25:09;0.70;;;0.50;;
15876;SDS011;8037;51.666;7.834;2023-04-01T21:27:49;0.83;;;0.50;;
15876;SDS011;8037;51.666;7.834;2023-04-01T21:30:29;0.63;;;0.63;;
15876;SDS011;8037;51.666;7.834;2023-04-01T21:35:30;0.50;;;0.50;;
15876;SDS011;8037;51.666;7.834;2023-04-01T21:38:14;0.40;;;0.40;;
15876;SDS011;8037;51.666;7.834;2023-04-01T22:06:31;0.77;;;0.77;;
15876;SDS011;8037;51.666;7.834;2023-04-01T22:09:11;0.40;;;0.37;;
15876;SDS011;8037;51.666;7.834;2023-04-01T22:14:27;1.87;;;0.60;;
15876;SDS011;8037;51.666;7.834;2023-04-01T22:16:58;0.60;;;0.60;;
15876;SDS011;8037;51.666;7.834;2023-04-01T22:27:36;0.57;;;0.57;;
15876;SDS011;8037;51.666;7.834;2023-04-01T22:30:10;0.60;;;0.60;;
15876;SDS011;8037;51.666;7.834;2023-04-01T22:32:44;0.50;;;0.50;;
15876;SDS011;8037;51.666;7.834;2023-04-01T22:37:42;0.73;;;0.73;;
15876;SDS011;8037;51.666;7.834;2023-04-01T22:40:16;0.40;;;0.40;;
15876;SDS011;8037;51.666;7.834;2023-04-01T22:42:46;0.60;;;0.60;;
15876;SDS011;8037;51.666;7.834;2023-04-01T22:48:05;0.50;;;0.50;;
15876;SDS011;8037;51.666;7.834;2023-04-01T22:55:53;0.50;;;0.50;;
15876;SDS011;8037;51.666;7.834;2023-04-01T22:58:30;0.87;;;0.83;;
15876;SDS011;8037;51.666;7.834;2023-04-01T23:01:01;0.50;;;0.50;;
15876;SDS011;8037;51.666;7.834;2023-04-01T23:03:31;9.40;;;0.90;;
15876;SDS011;8037;51.666;7.834;2023-04-01T23:05:59;0.97;;;0.90;;
15876;SDS011;8037;51.666;7.834;2023-04-01T23:11:04;1.20;;;1.20;;
15876;SDS011;8037;51.666;7.834;2023-04-01T23:13:41;0.97;;;0.87;;
15876;SDS011;8037;51.666;7.834;2023-04-01T23:16:08;1.00;;;1.00;;
15876;SDS011;8037;51.666;7.834;2023-04-01T23:24:24;0.73;;;0.73;;
15876;SDS011;8037;51.666;7.834;2023-04-01T23:29:36;1.80;;;0.70;;
15876;SDS011;8037;51.666;7.834;2023-04-01T23:32:14;1.10;;;1.10;;
15876;SDS011;8037;51.666;7.834;2023-04-01T23:34:45;1.23;;;0.60;;
15876;SDS011;8037;51.666;7.834;2023-04-01T23:37:12;1.87;;;1.10;;
15876;SDS011;8037;51.666;7.834;2023-04-01T23:39:41;0.90;;;0.90;;
15876;SDS011;8037;51.666;7.834;2023-04-01T23:42:24;0.90;;;0.90;;
15876;SDS011;8037;51.666;7.834;2023-04-01T23:44:52;1.13;;;1.03;;
15876;SDS011;8037;51.666;7.834;2023-04-01T23:47:20;0.80;;;0.80;;
15876;SDS011;8037;51.666;7.834;2023-04-01T23:50:32;2.10;;;0.97;;
15876;SDS011;8037;51.666;7.834;2023-04-01T23:52:39;1.93;;;1.47;;
15876;SDS011;8037;51.666;7.834;2023-04-01T23:57:38;1.00;;;1.00;;
